createdAt,value
2023-04-19T00:01:16.750Z,100150.94
2023-04-19T00:03:43.350Z,100144.44
2023-04-19T00:06:10.641Z,100141.63
2023-04-19T00:08:37.089Z,100141.28
2023-04-19T00:11:03.585Z,100139.06
2023-04-19T00:13:30.238Z,100148.97
2023-04-19T00:15:57.089Z,100144.44
2023-04-19T00:18:23.564Z,100147.72
2023-04-19T00:20:50.134Z,100136.16
2023-04-19T00:23:16.820Z,100145.53
2023-04-19T00:25:43.379Z,100140.63
2023-04-19T00:28:09.781Z,100146.53
2023-04-19T00:30:36.414Z,100138.94
2023-04-19T00:33:03.524Z,100137.88
2023-04-19T00:35:30.415Z,100135.78
2023-04-19T00:37:57.164Z,100140.91
2023-04-19T00:40:23.782Z,100136.63
2023-04-19T00:42:50.632Z,100141.25
2023-04-19T00:45:17.459Z,100125.16
2023-04-19T00:47:43.984Z,100125.44
2023-04-19T00:50:11.237Z,100131.50
2023-04-19T00:52:37.676Z,100120.53
2023-04-19T00:55:05.120Z,100126.50
2023-04-19T00:57:31.632Z,100122.00
2023-04-19T00:59:58.827Z,100115.41
2023-04-19T01:02:25.840Z,100120.53
2023-04-19T01:04:52.747Z,100117.84
2023-04-19T01:07:19.957Z,100116.22
2023-04-19T01:09:47.531Z,100117.56
2023-04-19T01:12:14.185Z,100120.38
2023-04-19T01:14:41.175Z,100118.91
2023-04-19T01:17:08.375Z,100124.09
2023-04-19T01:19:36.363Z,100129.31
2023-04-19T01:22:04.411Z,100119.53
2023-04-19T01:24:31.127Z,100118.09
2023-04-19T01:26:57.738Z,100120.75
2023-04-19T01:29:24.299Z,100121.81
2023-04-19T01:31:53.579Z,100117.78
2023-04-19T01:34:20.365Z,100111.69
2023-04-19T01:36:47.143Z,100119.09
2023-04-19T01:39:13.610Z,100109.81
2023-04-19T01:41:40.726Z,100114.94
2023-04-19T01:44:07.152Z,100113.34
2023-04-19T01:46:33.802Z,100111.06
2023-04-19T01:49:00.205Z,100108.78
2023-04-19T01:51:26.604Z,100105.25
2023-04-19T01:53:54.928Z,100112.16
2023-04-19T01:56:24.224Z,100097.97
2023-04-19T01:58:51.427Z,100103.22
2023-04-19T02:01:17.864Z,100104.88
2023-04-19T02:03:44.412Z,100111.63
2023-04-19T02:06:12.767Z,100108.53
2023-04-19T02:08:42.931Z,100113.25
2023-04-19T02:11:11.575Z,100099.59
2023-04-19T02:13:38.138Z,100103.66
2023-04-19T02:16:05.901Z,100105.66
2023-04-19T02:18:33.885Z,100104.41
2023-04-19T02:21:00.603Z,100099.16
2023-04-19T02:23:27.319Z,100107.97
2023-04-19T02:25:54.178Z,100100.16
2023-04-19T02:28:20.972Z,100100.88
2023-04-19T02:30:47.508Z,100105.19
2023-04-19T02:33:15.434Z,100105.81
2023-04-19T02:35:42.061Z,100103.66
2023-04-19T02:38:08.442Z,100112.63
2023-04-19T02:40:35.367Z,100096.91
2023-04-19T02:43:01.840Z,100101.38
2023-04-19T02:45:28.751Z,100098.69
2023-04-19T02:47:55.404Z,100108.19
2023-04-19T02:50:22.064Z,100099.91
2023-04-19T02:52:48.487Z,100110.06
2023-04-19T02:55:15.034Z,100098.69
2023-04-19T02:57:41.529Z,100098.06
2023-04-19T03:00:09.022Z,100097.53
2023-04-19T03:02:35.843Z,100096.16
2023-04-19T03:05:02.744Z,100107.16
2023-04-19T03:07:29.664Z,100098.28
2023-04-19T03:09:56.084Z,100099.16
2023-04-19T03:12:22.610Z,100101.38
2023-04-19T03:14:49.418Z,100092.38
2023-04-19T03:17:16.538Z,100093.31
2023-04-19T03:19:42.947Z,100092.59
2023-04-19T03:22:09.535Z,100092.28
2023-04-19T03:24:37.941Z,100089.88
2023-04-19T03:27:04.732Z,100097.19
2023-04-19T03:29:31.636Z,100092.97
2023-04-19T03:31:58.054Z,100093.38
2023-04-19T03:34:24.868Z,100089.72
2023-04-19T03:36:51.861Z,100090.72
2023-04-19T03:39:18.394Z,100091.22
2023-04-19T03:41:45.206Z,100084.41
2023-04-19T03:44:11.666Z,100079.06
2023-04-19T03:46:38.673Z,100074.16
2023-04-19T03:49:05.161Z,100066.84
2023-04-19T03:51:32.074Z,100070.16
2023-04-19T03:53:58.521Z,100072.84
2023-04-19T03:56:24.928Z,100060.53
2023-04-19T03:58:52.620Z,100059.81
2023-04-19T04:01:22.662Z,100063.94
2023-04-19T04:03:49.653Z,100073.16
2023-04-19T04:06:16.350Z,100072.59
2023-04-19T04:08:43.150Z,100077.94
2023-04-19T04:11:09.617Z,100079.06
2023-04-19T04:13:36.636Z,100081.00
2023-04-19T04:16:03.735Z,100076.72
2023-04-19T04:18:31.269Z,100080.91
2023-04-19T04:20:57.624Z,100076.38
2023-04-19T04:23:25.742Z,100079.91
2023-04-19T04:26:03.005Z,100078.81
2023-04-19T04:28:29.488Z,100077.00
2023-04-19T04:30:57.565Z,100080.28
2023-04-19T04:33:29.691Z,100080.00
2023-04-19T04:35:57.782Z,100078.81
2023-04-19T04:38:25.344Z,100086.75
2023-04-19T04:40:57.817Z,100077.38
2023-04-19T04:43:26.040Z,100073.97
2023-04-19T04:45:56.846Z,100071.50
2023-04-19T04:48:23.812Z,100075.03
2023-04-19T04:50:50.329Z,100062.75
2023-04-19T04:53:16.833Z,100076.03
2023-04-19T04:55:43.903Z,100081.38
2023-04-19T04:58:10.617Z,100072.69
2023-04-19T05:00:37.628Z,100067.38
2023-04-19T05:03:04.199Z,100055.56
2023-04-19T05:05:31.364Z,100064.72
2023-04-19T05:07:57.844Z,100068.59
2023-04-19T05:10:24.373Z,100070.53
2023-04-19T05:12:50.783Z,100064.34
2023-04-19T05:15:17.348Z,100059.25
2023-04-19T05:17:43.781Z,100054.97
2023-04-19T05:20:10.984Z,100061.41
2023-04-19T05:22:37.779Z,100057.16
2023-04-19T05:25:04.935Z,100058.47
2023-04-19T05:27:31.472Z,100058.84
2023-04-19T05:29:58.378Z,100057.63
2023-04-19T05:32:24.940Z,100058.59
2023-04-19T05:34:51.849Z,100056.56
2023-04-19T05:37:18.256Z,100058.38
2023-04-19T05:39:45.019Z,100051.81
2023-04-19T05:42:11.730Z,100046.94
2023-04-19T05:44:38.262Z,100053.38
2023-04-19T05:47:04.670Z,100046.91
2023-04-19T05:49:31.861Z,100041.31
2023-04-19T05:51:58.740Z,100041.19
2023-04-19T05:54:25.267Z,100032.28
2023-04-19T05:56:51.819Z,100037.91
2023-04-19T05:59:18.233Z,100043.25
2023-04-19T06:01:44.863Z,100037.91
2023-04-19T06:04:11.884Z,100045.81
2023-04-19T06:06:38.401Z,100038.88
2023-04-19T06:09:05.056Z,100041.06
2023-04-19T06:11:38.882Z,100042.63
2023-04-19T06:14:10.846Z,100045.34
2023-04-19T06:16:37.406Z,100042.25
2023-04-19T06:19:04.249Z,100049.72
2023-04-19T06:21:31.692Z,100044.72
2023-04-19T06:23:59.128Z,100040.31
2023-04-19T06:26:26.394Z,100040.56
2023-04-19T06:28:52.856Z,100041.53
2023-04-19T06:31:19.914Z,100045.41
2023-04-19T06:33:46.824Z,100048.31
2023-04-19T06:36:13.343Z,100034.16
2023-04-19T06:38:41.324Z,100036.09
2023-04-19T06:41:09.127Z,100030.00
2023-04-19T06:43:35.708Z,100028.91
2023-04-19T06:46:04.547Z,100024.88
2023-04-19T06:48:31.567Z,100025.59
2023-04-19T06:50:58.558Z,100025.94
2023-04-19T06:53:25.020Z,100023.25
2023-04-19T06:56:01.660Z,100026.59
2023-04-19T06:58:28.495Z,100014.78
2023-04-19T07:00:55.359Z,100020.84
2023-04-19T07:03:22.493Z,100010.56
2023-04-19T07:05:49.980Z,100026.94
2023-04-19T07:08:16.662Z,100015.22
2023-04-19T07:10:44.234Z,100010.06
2023-04-19T07:13:11.812Z,100011.03
2023-04-19T07:15:39.540Z,100010.72
2023-04-19T07:18:06.106Z,100007.03
2023-04-19T07:20:33.016Z,100001.00
2023-04-19T07:22:59.993Z,99994.00
2023-04-19T07:25:27.320Z,99992.09
2023-04-19T07:27:55.827Z,99995.09
2023-04-19T07:30:22.422Z,99993.13
2023-04-19T07:32:51.600Z,99985.66
2023-04-19T07:35:19.403Z,99988.28
2023-04-19T07:37:46.300Z,99983.72
2023-04-19T07:40:13.121Z,99983.25
2023-04-19T07:42:39.827Z,99975.53
2023-04-19T07:45:07.063Z,99978.50
2023-04-19T07:47:33.748Z,99976.19
2023-04-19T07:50:00.309Z,99977.09
2023-04-19T07:52:26.744Z,99967.22
2023-04-19T07:54:53.579Z,99964.38
2023-04-19T07:57:20.133Z,99959.25
2023-04-19T07:59:46.701Z,99967.25
2023-04-19T08:02:13.616Z,99959.91
2023-04-19T08:04:40.388Z,99961.94
2023-04-19T08:07:09.379Z,99954.44
2023-04-19T08:09:37.714Z,99951.78
2023-04-19T08:12:04.416Z,99947.53
2023-04-19T08:14:38.034Z,99952.22
2023-04-19T08:17:24.266Z,99950.09
2023-04-19T08:19:53.146Z,99948.69
2023-04-19T08:22:21.110Z,99940.91
2023-04-19T08:24:50.118Z,99939.31
2023-04-19T08:27:16.880Z,99933.09
2023-04-19T08:29:43.346Z,99938.59
2023-04-19T08:32:12.341Z,99930.81
2023-04-19T08:34:40.270Z,99928.69
2023-04-19T08:37:07.741Z,99935.63
2023-04-19T08:39:35.478Z,99934.47
2023-04-19T08:42:13.169Z,99931.63
2023-04-19T08:45:06.401Z,99927.34
2023-04-19T08:47:51.801Z,99925.97
2023-04-19T08:50:33.342Z,99932.47
2023-04-19T08:53:12.100Z,99927.53
2023-04-19T08:56:06.982Z,99922.59
2023-04-19T08:58:50.350Z,99929.09
2023-04-19T09:01:34.669Z,99920.72
2023-04-19T09:04:26.454Z,99914.63
2023-04-19T09:06:51.881Z,99905.50
2023-04-19T09:11:53.642Z,99898.28
2023-04-19T09:14:22.306Z,99900.22
2023-04-19T09:16:48.895Z,99902.25
2023-04-19T09:19:23.967Z,99901.56
2023-04-19T09:21:53.580Z,99902.47
2023-04-19T09:25:04.453Z,99902.28
2023-04-19T09:27:32.138Z,99885.34
2023-04-19T09:30:00.728Z,99887.78
2023-04-19T09:32:28.303Z,99885.84
2023-04-19T09:34:59.796Z,99881.84
2023-04-19T09:39:56.883Z,99888.34
2023-04-19T09:42:42.358Z,99898.47
2023-04-19T09:47:40.568Z,99887.22
2023-04-19T09:50:21.929Z,99877.28
2023-04-19T09:52:52.791Z,99876.56
2023-04-19T09:57:49.669Z,99868.81
2023-04-19T10:00:16.995Z,99880.41
2023-04-19T10:02:45.263Z,99874.59
2023-04-19T10:05:20.622Z,99871.16
2023-04-19T10:07:49.662Z,99870.25
2023-04-19T10:10:30.156Z,99875.34
2023-04-19T10:13:21.435Z,99862.56
2023-04-19T10:15:54.036Z,99861.97
2023-04-19T10:18:27.059Z,99861.91
2023-04-19T10:21:02.119Z,99860.13
2023-04-19T10:23:29.213Z,99854.97
2023-04-19T10:26:00.406Z,99851.22
2023-04-19T10:28:30.909Z,99853.47
2023-04-19T10:31:03.467Z,99852.03
2023-04-19T10:33:34.681Z,99843.84
2023-04-19T10:36:02.250Z,99845.34
2023-04-19T10:38:51.834Z,99844.63
2023-04-19T10:41:19.646Z,99843.06
2023-04-19T10:43:48.650Z,99843.16
2023-04-19T10:46:21.689Z,99841.47
2023-04-19T10:48:55.083Z,99831.81
2023-04-19T10:51:44.604Z,99830.13
2023-04-19T10:54:34.570Z,99817.13
2023-04-19T10:57:11.376Z,99803.28
2023-04-19T10:59:40.427Z,99812.59
2023-04-19T11:02:22.195Z,99814.00
2023-04-19T11:04:48.856Z,99816.28
2023-04-19T11:07:15.599Z,99810.13
2023-04-19T11:09:46.038Z,99804.00
2023-04-19T11:12:20.528Z,99802.50
2023-04-19T11:14:49.259Z,99801.34
2023-04-19T11:17:19.072Z,99808.44
2023-04-19T11:20:07.087Z,99802.97
2023-04-19T11:22:33.952Z,99792.75
2023-04-19T11:25:07.174Z,99780.94
2023-04-19T11:27:34.750Z,99788.97
2023-04-19T11:30:06.579Z,99780.59
2023-04-19T11:32:33.587Z,99776.44
2023-04-19T11:35:08.831Z,99764.06
2023-04-19T11:37:36.689Z,99760.84
2023-04-19T11:40:05.608Z,99754.00
2023-04-19T11:42:32.749Z,99753.88
2023-04-19T11:44:59.991Z,99740.88
2023-04-19T11:47:27.424Z,99741.94
2023-04-19T11:49:57.297Z,99726.03
2023-04-19T11:52:25.641Z,99732.50
2023-04-19T11:54:55.603Z,99734.66
2023-04-19T11:57:31.527Z,99741.88
2023-04-19T12:00:12.116Z,99727.91
2023-04-19T12:02:41.539Z,99742.47
2023-04-19T12:05:17.083Z,99741.34
2023-04-19T12:08:04.330Z,99730.03
2023-04-19T12:10:34.482Z,99736.16
2023-04-19T12:13:01.069Z,99740.88
2023-04-19T12:15:44.149Z,99728.50
2023-04-19T12:18:10.869Z,99720.59
2023-04-19T12:20:38.967Z,99725.63
2023-04-19T12:23:07.553Z,99716.16
2023-04-19T12:25:34.771Z,99704.44
2023-04-19T12:28:03.917Z,99718.75
2023-04-19T12:30:30.998Z,99708.25
2023-04-19T12:32:58.909Z,99714.94
2023-04-19T12:35:29.874Z,99710.88
2023-04-19T12:37:59.130Z,99712.19
2023-04-19T12:40:26.557Z,99700.56
2023-04-19T12:42:53.858Z,99697.88
2023-04-19T12:45:20.899Z,99694.69
2023-04-19T12:47:48.493Z,99691.53
2023-04-19T12:50:16.016Z,99701.47
2023-04-19T12:52:49.412Z,99661.09
2023-04-19T12:55:16.294Z,99681.53
2023-04-19T12:57:43.125Z,99684.28
2023-04-19T13:00:11.165Z,99696.47
2023-04-19T13:02:38.419Z,99687.84
2023-04-19T13:05:05.625Z,99691.88
2023-04-19T13:07:32.914Z,99681.94
2023-04-19T13:09:59.342Z,99683.06
2023-04-19T13:12:26.402Z,99680.38
2023-04-19T13:14:52.903Z,99666.50
2023-04-19T13:17:20.829Z,99680.69
2023-04-19T13:19:47.483Z,99667.03
2023-04-19T13:22:14.641Z,99670.91
2023-04-19T13:24:41.082Z,99668.72
2023-04-19T13:27:09.113Z,99669.19
2023-04-19T13:29:36.066Z,99670.34
2023-04-19T13:32:02.621Z,99658.72
2023-04-19T13:34:29.693Z,99660.03
2023-04-19T13:36:57.567Z,99658.34
2023-04-19T13:39:24.710Z,99651.28
2023-04-19T13:41:51.860Z,99653.16
2023-04-19T13:44:18.517Z,99650.44
2023-04-19T13:46:45.390Z,99639.97
2023-04-19T13:49:12.012Z,99639.09
2023-04-19T13:51:46.913Z,99630.81
2023-04-19T13:54:20.207Z,99622.06
2023-04-19T13:56:51.343Z,99621.19
2023-04-19T13:59:18.632Z,99626.28
2023-04-19T14:01:45.597Z,99624.75
2023-04-19T14:04:12.219Z,99626.97
2023-04-19T14:06:39.016Z,99622.69
2023-04-19T14:09:05.444Z,99615.47
2023-04-19T14:11:32.455Z,99625.91
2023-04-19T14:14:00.569Z,99611.03
2023-04-19T14:16:27.131Z,99616.28
2023-04-19T14:18:53.959Z,99616.44
2023-04-19T14:21:20.416Z,99615.94
2023-04-19T14:23:46.976Z,99619.16
2023-04-19T14:26:15.545Z,99617.13
2023-04-19T14:28:42.094Z,99606.47
2023-04-19T14:31:08.536Z,99607.69
2023-04-19T14:33:35.245Z,99614.59
2023-04-19T14:36:02.008Z,99600.75
2023-04-19T14:38:28.575Z,99600.56
2023-04-19T14:40:55.268Z,99609.16
2023-04-19T14:43:22.380Z,99604.56
2023-04-19T14:45:49.900Z,99599.13
2023-04-19T14:48:16.566Z,99603.41
2023-04-19T14:50:43.542Z,99596.25
2023-04-19T14:53:09.969Z,99597.19
2023-04-19T14:55:39.687Z,99604.47
2023-04-19T14:58:06.348Z,99590.25
2023-04-19T15:00:33.155Z,99605.78
2023-04-19T15:02:59.693Z,99589.38
2023-04-19T15:05:29.976Z,99589.69
2023-04-19T15:07:56.648Z,99588.59
2023-04-19T15:10:23.126Z,99589.53
2023-04-19T15:12:49.701Z,99581.44
2023-04-19T15:15:16.818Z,99577.34
2023-04-19T15:17:43.478Z,99580.53
2023-04-19T15:20:10.279Z,99577.09
2023-04-19T15:22:37.162Z,99575.81
2023-04-19T15:25:04.083Z,99570.44
2023-04-19T15:27:31.586Z,99577.75
2023-04-19T15:29:57.972Z,99580.13
2023-04-19T15:32:24.924Z,99592.25
2023-04-19T15:34:51.496Z,99581.16
2023-04-19T15:37:18.450Z,99585.81
2023-04-19T15:39:44.854Z,99581.75
2023-04-19T15:42:11.645Z,99598.59
2023-04-19T15:44:38.260Z,99586.28
2023-04-19T15:47:04.849Z,99574.06
2023-04-19T15:49:31.524Z,99587.38
2023-04-19T15:51:58.070Z,99595.31
2023-04-19T15:54:24.508Z,99579.53
2023-04-19T15:56:57.269Z,99571.53
2023-04-19T15:59:23.661Z,99577.94
2023-04-19T16:01:50.323Z,99579.44
2023-04-19T16:04:16.932Z,99585.31
2023-04-19T16:06:43.500Z,99591.06
2023-04-19T16:09:10.402Z,99587.38
2023-04-19T16:11:36.852Z,99579.66
2023-04-19T16:14:03.715Z,99593.28
2023-04-19T16:16:33.007Z,99584.66
2023-04-19T16:19:00.064Z,99603.34
2023-04-19T16:21:29.387Z,99600.75
2023-04-19T16:23:56.336Z,99604.56
2023-04-19T16:26:23.080Z,99606.25
2023-04-19T16:28:49.635Z,99611.56
2023-04-19T16:31:16.060Z,99609.91
2023-04-19T16:33:42.612Z,99606.56
2023-04-19T16:36:09.404Z,99607.09
2023-04-19T16:38:35.793Z,99605.38
2023-04-19T16:41:05.659Z,99606.72
2023-04-19T16:43:32.334Z,99603.09
2023-04-19T16:45:58.874Z,99601.69
2023-04-19T16:48:25.879Z,99597.25
2023-04-19T16:50:52.799Z,99607.56
2023-04-19T16:53:19.641Z,99605.25
2023-04-19T16:55:46.105Z,99599.88
2023-04-19T16:58:12.669Z,99600.41
2023-04-19T17:00:39.154Z,99612.25
2023-04-19T17:03:09.761Z,99603.88
2023-04-19T17:05:36.354Z,99599.63
2023-04-19T17:08:03.334Z,99597.16
2023-04-19T17:10:29.840Z,99599.47
2023-04-19T17:12:56.906Z,99609.25
2023-04-19T17:15:23.480Z,99597.75
2023-04-19T17:17:50.446Z,99587.44
2023-04-19T17:20:17.013Z,99594.75
2023-04-19T17:22:43.686Z,99593.19
2023-04-19T17:25:10.095Z,99594.03
2023-04-19T17:27:36.726Z,99594.13
2023-04-19T17:30:03.267Z,99593.25
2023-04-19T17:32:29.901Z,99599.00
2023-04-19T17:34:56.646Z,99598.31
2023-04-19T17:37:23.074Z,99591.03
2023-04-19T17:39:49.581Z,99594.78
2023-04-19T17:42:16.102Z,99598.50
2023-04-19T17:44:42.991Z,99601.41
2023-04-19T17:47:09.434Z,99592.78
2023-04-19T17:49:36.374Z,99592.50
2023-04-19T17:52:03.242Z,99591.41
2023-04-19T17:54:29.928Z,99592.44
2023-04-19T17:56:59.166Z,99600.25
2023-04-19T17:59:25.554Z,99594.44
2023-04-19T18:01:52.344Z,99603.25
2023-04-19T18:04:20.064Z,99592.34
2023-04-19T18:06:47.765Z,99600.13
2023-04-19T18:09:15.205Z,99598.44
2023-04-19T18:11:42.102Z,99595.75
2023-04-19T18:14:08.727Z,99603.81
2023-04-19T18:16:35.714Z,99599.00
2023-04-19T18:19:02.542Z,99601.56
2023-04-19T18:21:28.977Z,99608.03
2023-04-19T18:23:56.489Z,99617.09
2023-04-19T18:26:23.378Z,99619.00
2023-04-19T18:28:50.106Z,99617.00
2023-04-19T18:31:16.609Z,99617.22
2023-04-19T18:33:43.056Z,99615.63
2023-04-19T18:36:09.723Z,99619.41
2023-04-19T18:38:36.173Z,99630.56
2023-04-19T18:41:02.836Z,99625.72
2023-04-19T18:43:30.847Z,99630.00
2023-04-19T18:45:57.905Z,99629.28
2023-04-19T18:48:28.436Z,99631.59
2023-04-19T18:50:55.178Z,99634.94
2023-04-19T18:53:21.816Z,99636.16
2023-04-19T18:55:48.508Z,99642.50
2023-04-19T18:58:15.663Z,99640.47
2023-04-19T19:00:42.548Z,99651.34
2023-04-19T19:03:21.448Z,99649.34
2023-04-19T19:05:55.886Z,99653.84
2023-04-19T19:08:22.767Z,99652.94
2023-04-19T19:11:13.729Z,99662.88
2023-04-19T19:13:36.153Z,99660.38
2023-04-19T19:16:02.696Z,99660.75
2023-04-19T19:18:29.526Z,99659.34
2023-04-19T19:21:00.194Z,99665.38
2023-04-19T19:25:58.021Z,99669.28
2023-04-19T19:28:24.814Z,99674.16
2023-04-19T19:30:51.288Z,99669.28
2023-04-19T19:33:18.583Z,99674.28
2023-04-19T19:35:45.412Z,99669.81
2023-04-19T19:38:12.020Z,99680.63
2023-04-19T19:40:59.385Z,99672.97
2023-04-19T19:43:24.840Z,99672.72
2023-04-19T19:45:51.196Z,99680.03
2023-04-19T19:48:17.819Z,99674.31
2023-04-19T19:53:13.693Z,99680.44
2023-04-19T19:55:40.506Z,99679.03
2023-04-19T20:00:46.317Z,99678.56
2023-04-19T20:03:14.199Z,99684.63
2023-04-19T20:05:41.514Z,99680.75
2023-04-19T20:08:10.570Z,99685.50
2023-04-19T20:10:38.790Z,99679.78
2023-04-19T20:13:08.740Z,99685.13
2023-04-19T20:15:36.915Z,99687.66
2023-04-19T20:18:04.349Z,99699.00
2023-04-19T20:20:31.042Z,99695.09
2023-04-19T20:22:57.596Z,99691.16
2023-04-19T20:25:24.222Z,99696.03
2023-04-19T20:27:50.654Z,99691.66
2023-04-19T20:30:17.508Z,99696.53
2023-04-19T20:32:44.062Z,99693.34
2023-04-19T20:35:12.253Z,99690.75
2023-04-19T20:37:42.445Z,99689.03
2023-04-19T20:40:12.050Z,99694.09
2023-04-19T20:42:38.539Z,99686.16
2023-04-19T20:45:11.821Z,99687.59
2023-04-19T20:47:38.810Z,99692.78
2023-04-19T20:50:08.923Z,99692.66
2023-04-19T20:52:35.617Z,99696.13
2023-04-19T20:55:02.165Z,99687.00
2023-04-19T20:57:29.189Z,99699.81
2023-04-19T20:59:55.860Z,99695.25
2023-04-19T21:02:22.392Z,99694.09
2023-04-19T21:04:49.063Z,99689.47
2023-04-19T21:07:15.530Z,99697.38
2023-04-19T21:09:42.158Z,99683.97
2023-04-19T21:12:08.649Z,99687.16
2023-04-19T21:14:35.188Z,99689.66
2023-04-19T21:17:03.483Z,99684.13
2023-04-19T21:19:30.604Z,99683.16
2023-04-19T21:21:58.900Z,99686.44
2023-04-19T21:24:25.546Z,99688.69
2023-04-19T21:26:52.298Z,99696.66
2023-04-19T21:29:19.869Z,99691.22
2023-04-19T21:31:48.166Z,99693.19
2023-04-19T21:34:14.940Z,99689.25
2023-04-19T21:36:41.850Z,99687.00
2023-04-19T21:39:08.758Z,99680.09
2023-04-19T21:41:35.644Z,99685.06
2023-04-19T21:44:02.084Z,99679.28
2023-04-19T21:46:42.953Z,99677.16
2023-04-19T21:49:09.616Z,99677.84
2023-04-19T21:51:36.066Z,99678.25
2023-04-19T21:54:02.705Z,99675.34
2023-04-19T21:56:29.077Z,99669.25
2023-04-19T21:58:55.726Z,99677.53
2023-04-19T22:01:22.164Z,99670.91
2023-04-19T22:03:49.017Z,99671.50
2023-04-19T22:06:17.256Z,99668.84
2023-04-19T22:08:43.923Z,99669.25
2023-04-19T22:11:12.039Z,99671.44
2023-04-19T22:13:38.614Z,99664.72
2023-04-19T22:16:05.548Z,99647.81
2023-04-19T22:18:34.479Z,99664.34
2023-04-19T22:21:01.348Z,99655.41
2023-04-19T22:23:27.735Z,99664.19
2023-04-19T22:25:54.148Z,99656.19
2023-04-19T22:28:21.383Z,99654.19
2023-04-19T22:30:47.872Z,99646.53
2023-04-19T22:33:14.258Z,99644.53
2023-04-19T22:35:40.769Z,99642.53
2023-04-19T22:38:07.806Z,99646.25
2023-04-19T22:40:34.199Z,99648.78
2023-04-19T22:43:00.606Z,99648.31
2023-04-19T22:45:27.174Z,99644.72
2023-04-19T22:47:53.597Z,99635.03
2023-04-19T22:50:20.582Z,99639.41
2023-04-19T22:52:46.940Z,99629.63
2023-04-19T22:55:13.349Z,99624.50
2023-04-19T22:57:39.743Z,99626.66
2023-04-19T23:00:06.979Z,99612.56
2023-04-19T23:02:33.430Z,99619.94
2023-04-19T23:05:00.924Z,99610.00
2023-04-19T23:07:28.673Z,99619.28
2023-04-19T23:09:56.403Z,99605.34
2023-04-19T23:12:23.962Z,99611.00
2023-04-19T23:14:50.527Z,99602.38
2023-04-19T23:17:18.349Z,99598.41
2023-04-19T23:19:44.762Z,99596.47
2023-04-19T23:22:11.314Z,99591.25
2023-04-19T23:24:37.684Z,99592.75
2023-04-19T23:27:04.758Z,99592.94
2023-04-19T23:29:31.228Z,99586.88
2023-04-19T23:31:58.103Z,99587.81
2023-04-19T23:34:24.771Z,99577.00
2023-04-19T23:36:51.292Z,99574.66
2023-04-19T23:39:18.028Z,99576.44
2023-04-19T23:41:44.765Z,99581.25
2023-04-19T23:44:11.480Z,99574.50
2023-04-19T23:46:38.118Z,99573.41
2023-04-19T23:49:04.505Z,99574.16
2023-04-19T23:51:31.282Z,99563.16
2023-04-19T23:53:57.621Z,99560.72
2023-04-19T23:56:24.027Z,99558.91
2023-04-19T23:58:50.381Z,99555.78
